createdAt,value
2022-08-08T00:02:04.049Z,90.09
2022-08-08T00:04:30.454Z,90.33
2022-08-08T00:07:13.137Z,90.39
2022-08-08T00:10:28.586Z,90.60
2022-08-08T00:14:15.172Z,90.80
2022-08-08T00:17:03.527Z,90.64
2022-08-08T00:19:51.508Z,90.96
2022-08-08T00:22:28.893Z,90.97
2022-08-08T00:25:05.266Z,91.13
2022-08-08T00:27:42.235Z,91.02
2022-08-08T00:30:15.538Z,91.18
2022-08-08T00:33:13.124Z,91.15
2022-08-08T00:36:01.584Z,91.43
2022-08-08T00:38:44.299Z,91.36
2022-08-08T00:42:12.777Z,91.18
2022-08-08T00:44:55.665Z,91.22
2022-08-08T00:47:36.990Z,91.35
2022-08-08T00:50:59.958Z,91.36
2022-08-08T00:53:31.135Z,91.38
2022-08-08T00:56:18.381Z,91.35
2022-08-08T00:59:18.653Z,91.35
2022-08-08T01:03:58.195Z,91.40
2022-08-08T01:05:42.348Z,91.51
2022-08-08T01:08:17.872Z,91.58
2022-08-08T01:11:24.616Z,91.75
2022-08-08T01:14:53.199Z,91.84
2022-08-08T01:17:19.991Z,92.10
2022-08-08T01:20:13.270Z,92.11
2022-08-08T01:22:58.171Z,92.07
2022-08-08T01:26:11.810Z,92.15
2022-08-08T01:29:06.307Z,92.27
2022-08-08T01:32:17.296Z,92.64
2022-08-08T01:35:02.481Z,92.64
2022-08-08T01:38:09.201Z,92.86
2022-08-08T01:41:04.156Z,93.00
2022-08-08T01:43:50.600Z,93.09
2022-08-08T01:46:47.473Z,93.32
2022-08-08T01:49:38.806Z,93.34
2022-08-08T01:54:03.452Z,93.30
2022-08-08T01:56:26.920Z,93.48
2022-08-08T01:58:50.199Z,93.56
2022-08-08T02:02:02.890Z,93.73
2022-08-08T02:04:59.756Z,93.96
2022-08-08T02:07:49.037Z,94.16
2022-08-08T02:10:45.922Z,94.18
2022-08-08T02:13:53.667Z,94.27
2022-08-08T02:16:28.278Z,94.30
2022-08-08T02:19:26.599Z,94.23
2022-08-08T02:22:33.073Z,94.16
2022-08-08T02:25:46.931Z,94.28
2022-08-08T02:28:51.764Z,94.20
2022-08-08T02:31:54.218Z,94.28
2022-08-08T02:34:37.281Z,94.48
2022-08-08T02:37:52.217Z,94.53
2022-08-08T02:40:20.235Z,94.61
2022-08-08T02:44:35.329Z,94.69
2022-08-08T02:46:22.363Z,94.80
2022-08-08T02:49:06.696Z,94.91
2022-08-08T02:51:59.791Z,95.06
2022-08-08T02:55:04.310Z,95.27
2022-08-08T02:58:06.635Z,95.38
2022-08-08T03:00:47.095Z,95.15
2022-08-08T03:05:02.764Z,95.48
2022-08-08T03:06:55.979Z,95.54
2022-08-08T03:10:02.817Z,95.32
2022-08-08T03:12:36.346Z,95.52
2022-08-08T03:15:59.221Z,95.75
2022-08-08T03:18:55.192Z,95.86
2022-08-08T03:21:26.824Z,95.67
2022-08-08T03:24:09.725Z,95.78
2022-08-08T03:26:44.563Z,95.59
2022-08-08T03:29:26.917Z,95.98
2022-08-08T03:32:31.041Z,95.78
2022-08-08T03:34:59.993Z,96.03
2022-08-08T03:37:59.350Z,95.88
2022-08-08T03:40:30.466Z,96.36
2022-08-08T03:43:16.734Z,96.74
2022-08-08T03:46:06.639Z,96.82
2022-08-08T03:49:31.017Z,96.81
2022-08-08T03:51:26.553Z,96.87
2022-08-08T03:54:10.433Z,96.88
2022-08-08T03:56:46.283Z,96.80
2022-08-08T03:59:23.141Z,96.61
2022-08-08T04:02:15.646Z,96.51
2022-08-08T04:04:43.305Z,96.27
2022-08-08T04:07:16.454Z,96.38
2022-08-08T04:10:00.843Z,96.15
2022-08-08T04:12:35.370Z,96.44
2022-08-08T04:15:05.262Z,96.58
2022-08-08T04:17:46.585Z,96.85
2022-08-08T04:20:28.792Z,97.05
2022-08-08T04:22:59.025Z,97.04
2022-08-08T04:25:38.311Z,97.03
2022-08-08T04:28:36.417Z,97.19
2022-08-08T04:30:57.716Z,97.29
2022-08-08T04:33:26.961Z,97.51
2022-08-08T04:35:56.079Z,97.35
2022-08-08T04:38:25.144Z,97.15
2022-08-08T04:40:57.075Z,96.84
2022-08-08T04:43:32.483Z,96.43
2022-08-08T04:46:18.494Z,96.81
2022-08-08T04:48:47.953Z,96.48
2022-08-08T04:51:17.396Z,96.29
2022-08-08T04:54:39.805Z,96.54
2022-08-08T04:56:45.272Z,96.60
2022-08-08T04:59:13.841Z,96.59
2022-08-08T05:01:48.329Z,96.13
2022-08-08T05:04:18.611Z,95.70
2022-08-08T05:06:50.486Z,95.68
2022-08-08T05:09:22.743Z,94.92
2022-08-08T05:11:57.320Z,94.36
2022-08-08T05:14:29.150Z,94.17
2022-08-08T05:17:00.887Z,94.42
2022-08-08T05:20:09.884Z,93.87
2022-08-08T05:22:29.307Z,92.66
2022-08-08T05:24:59.548Z,92.20
2022-08-08T05:27:33.079Z,91.79
2022-08-08T05:30:03.773Z,91.05
2022-08-08T05:32:40.523Z,90.26
2022-08-08T05:35:14.750Z,89.13
2022-08-08T05:37:53.490Z,88.52
2022-08-08T05:40:48.962Z,88.28
2022-08-08T05:43:39.894Z,88.94
2022-08-08T05:46:25.502Z,88.56
2022-08-08T05:48:55.789Z,88.08
2022-08-08T05:51:49.013Z,87.70
2022-08-08T05:54:27.539Z,86.95
2022-08-08T05:57:57.448Z,86.75
2022-08-08T06:00:23.691Z,86.17
2022-08-08T06:03:17.422Z,85.18
2022-08-08T06:06:07.128Z,85.00
2022-08-08T06:08:55.189Z,85.12
2022-08-08T06:11:33.528Z,85.34
2022-08-08T06:14:17.928Z,85.16
2022-08-08T06:16:47.891Z,85.24
2022-08-08T06:19:35.216Z,84.56
2022-08-08T06:22:32.265Z,84.20
2022-08-08T06:24:53.765Z,84.24
2022-08-08T06:27:51.956Z,84.12
2022-08-08T06:30:28.596Z,84.13
2022-08-08T06:33:01.374Z,83.86
2022-08-08T06:36:08.137Z,83.31
2022-08-08T06:38:29.033Z,82.89
2022-08-08T06:41:06.225Z,82.05
2022-08-08T06:43:37.353Z,81.36
2022-08-08T06:46:13.543Z,81.44
2022-08-08T06:48:46.140Z,81.59
2022-08-08T06:51:15.744Z,81.71
2022-08-08T06:53:50.421Z,81.78
2022-08-08T06:56:25.151Z,82.13
2022-08-08T06:58:55.114Z,82.37
2022-08-08T07:02:17.419Z,82.09
2022-08-08T07:04:45.441Z,81.61
2022-08-08T07:07:27.070Z,80.56
2022-08-08T07:10:07.873Z,80.95
2022-08-08T07:12:52.203Z,81.56
2022-08-08T07:16:03.893Z,82.01
2022-08-08T07:18:41.117Z,82.16
2022-08-08T07:21:18.927Z,80.84
2022-08-08T07:24:20.090Z,80.13
2022-08-08T07:26:59.509Z,79.64
2022-08-08T07:30:01.598Z,79.70
2022-08-08T07:32:26.555Z,79.67
2022-08-08T07:35:02.865Z,78.91
2022-08-08T07:37:55.690Z,79.22
2022-08-08T07:40:38.461Z,78.77
2022-08-08T07:43:11.649Z,79.71
2022-08-08T07:46:05.781Z,79.18
2022-08-08T07:48:38.036Z,79.31
2022-08-08T07:51:23.297Z,77.33
2022-08-08T07:54:15.842Z,75.77
2022-08-08T07:57:00.169Z,76.63
2022-08-08T07:59:38.049Z,76.11
2022-08-08T08:02:35.490Z,76.55
2022-08-08T08:05:01.295Z,77.58
2022-08-08T08:07:37.727Z,78.06
2022-08-08T08:10:08.670Z,78.17
2022-08-08T08:12:52.889Z,78.21
2022-08-08T08:15:26.642Z,78.04
2022-08-08T08:18:03.999Z,77.75
2022-08-08T08:20:34.751Z,77.26
2022-08-08T08:23:04.606Z,77.45
2022-08-08T08:25:43.743Z,77.87
2022-08-08T08:28:17.085Z,78.34
2022-08-08T08:30:50.420Z,78.27
2022-08-08T08:33:20.082Z,77.96
2022-08-08T08:36:19.180Z,78.37
2022-08-08T08:38:49.543Z,78.04
2022-08-08T08:41:23.750Z,78.59
2022-08-08T08:44:13.212Z,78.76
2022-08-08T08:46:47.537Z,79.15
2022-08-08T08:49:30.653Z,79.50
2022-08-08T08:52:04.721Z,77.57
2022-08-08T08:54:35.206Z,77.62
2022-08-08T08:57:15.383Z,78.02
2022-08-08T09:00:01.906Z,78.10
2022-08-08T09:02:41.709Z,77.54
2022-08-08T09:05:13.925Z,77.43
2022-08-08T09:08:13.027Z,77.48
2022-08-08T09:10:51.063Z,77.00
2022-08-08T09:13:25.281Z,77.13
2022-08-08T09:16:03.829Z,77.43
2022-08-08T09:18:34.585Z,76.49
2022-08-08T09:21:57.825Z,76.76
2022-08-08T09:23:51.849Z,76.74
2022-08-08T09:26:32.452Z,76.61
2022-08-08T09:29:05.330Z,76.27
2022-08-08T09:31:56.371Z,76.40
2022-08-08T09:34:34.557Z,75.29
2022-08-08T09:37:59.001Z,72.51
2022-08-08T09:40:11.369Z,74.05
2022-08-08T09:42:51.066Z,72.47
2022-08-08T09:46:01.359Z,71.96
2022-08-08T09:48:21.994Z,72.16
2022-08-08T09:50:59.398Z,72.99
2022-08-08T09:53:54.886Z,71.63
2022-08-08T09:56:25.373Z,70.36
2022-08-08T09:59:32.101Z,68.74
2022-08-08T10:02:02.205Z,68.51
2022-08-08T10:04:41.554Z,67.70
2022-08-08T10:07:27.260Z,67.89
2022-08-08T10:10:07.091Z,67.13
2022-08-08T10:12:54.203Z,68.10
2022-08-08T10:15:28.435Z,68.10
2022-08-08T10:18:11.835Z,66.95
2022-08-08T10:20:51.237Z,66.17
2022-08-08T10:23:55.614Z,65.50
2022-08-08T10:26:57.248Z,64.16
2022-08-08T10:29:59.217Z,62.59
2022-08-08T10:32:37.870Z,62.52
2022-08-08T10:36:01.879Z,63.08
2022-08-08T10:38:07.973Z,62.25
2022-08-08T10:40:38.908Z,62.44
2022-08-08T10:43:10.024Z,59.88
2022-08-08T10:45:54.984Z,56.00
2022-08-08T10:48:57.342Z,55.65
2022-08-08T10:51:47.041Z,52.01
2022-08-08T10:54:20.873Z,52.49
2022-08-08T10:56:58.784Z,52.28
2022-08-08T10:59:31.268Z,51.27
2022-08-08T11:02:09.394Z,51.17
2022-08-08T11:04:53.383Z,51.02
2022-08-08T11:08:30.277Z,52.86
2022-08-08T11:10:29.221Z,52.67
2022-08-08T11:15:59.028Z,50.72
2022-08-08T11:18:30.627Z,47.80
2022-08-08T11:21:10.397Z,49.37
2022-08-08T11:23:43.479Z,48.50
2022-08-08T11:26:19.350Z,49.81
2022-08-08T11:28:51.044Z,49.28
2022-08-08T11:31:22.019Z,50.79
2022-08-08T11:34:01.613Z,50.19
2022-08-08T11:36:36.281Z,48.37
2022-08-08T11:39:11.019Z,49.60
2022-08-08T11:41:43.338Z,49.53
2022-08-08T11:44:15.094Z,49.86
2022-08-08T11:46:44.189Z,49.60
2022-08-08T11:49:14.581Z,48.45
2022-08-08T11:51:50.217Z,47.11
2022-08-08T11:54:33.833Z,41.63
2022-08-08T11:57:17.240Z,43.39
2022-08-08T12:00:01.204Z,44.78
2022-08-08T12:02:51.423Z,42.52
2022-08-08T12:05:33.568Z,45.33
2022-08-08T12:08:02.745Z,46.61
2022-08-08T12:10:34.161Z,45.42
2022-08-08T12:13:09.863Z,45.61
2022-08-08T12:15:46.850Z,40.70
2022-08-08T12:18:24.944Z,39.06
2022-08-08T12:20:56.573Z,41.43
2022-08-08T12:23:43.861Z,41.93
2022-08-08T12:26:28.056Z,44.21
2022-08-08T12:29:40.386Z,43.59
2022-08-08T12:32:13.297Z,42.98
2022-08-08T12:34:48.591Z,45.50
2022-08-08T12:37:40.041Z,44.18
2022-08-08T12:40:24.234Z,45.35
2022-08-08T12:42:53.428Z,45.22
2022-08-08T12:45:58.701Z,42.08
2022-08-08T12:48:36.509Z,41.88
2022-08-08T12:51:07.773Z,43.37
2022-08-08T12:53:58.524Z,41.67
2022-08-08T12:56:36.242Z,41.53
2022-08-08T12:59:36.613Z,42.39
2022-08-08T13:02:09.107Z,40.45
2022-08-08T13:04:38.035Z,41.08
2022-08-08T13:07:11.809Z,42.56
2022-08-08T13:10:04.044Z,41.92
2022-08-08T13:12:47.074Z,42.62
2022-08-08T13:15:19.436Z,41.39
2022-08-08T13:18:08.335Z,42.25
2022-08-08T13:20:48.989Z,40.97
2022-08-08T13:23:41.353Z,41.93
2022-08-08T13:26:18.417Z,43.79
2022-08-08T13:28:48.813Z,45.14
2022-08-08T13:31:17.611Z,43.64
2022-08-08T13:33:50.305Z,46.45
2022-08-08T13:36:25.684Z,46.56
2022-08-08T13:38:59.500Z,43.54
2022-08-08T13:41:39.277Z,44.23
2022-08-08T13:44:13.193Z,45.63
2022-08-08T13:46:56.717Z,46.53
2022-08-08T13:50:36.532Z,44.47
2022-08-08T13:52:23.396Z,46.28
2022-08-08T13:55:06.593Z,47.35
2022-08-08T13:58:00.748Z,48.23
2022-08-08T14:00:24.819Z,47.02
2022-08-08T14:03:20.021Z,48.44
2022-08-08T14:05:58.838Z,46.69
2022-08-08T14:08:34.881Z,45.01
2022-08-08T14:11:03.522Z,44.22
2022-08-08T14:13:33.920Z,45.51
2022-08-08T14:16:04.740Z,46.78
2022-08-08T14:18:57.710Z,46.90
2022-08-08T14:21:48.942Z,45.47
2022-08-08T14:24:34.164Z,43.84
2022-08-08T14:27:07.345Z,45.58
2022-08-08T14:29:39.571Z,45.43
2022-08-08T14:32:14.364Z,45.62
2022-08-08T14:34:50.666Z,45.91
2022-08-08T14:37:21.233Z,44.05
2022-08-08T14:40:05.720Z,44.72
2022-08-08T14:42:54.811Z,42.95
2022-08-08T14:45:33.325Z,43.13
2022-08-08T14:48:27.421Z,44.95
2022-08-08T14:51:07.501Z,47.10
2022-08-08T14:53:56.141Z,46.58
2022-08-08T14:56:26.335Z,44.13
2022-08-08T14:58:55.178Z,45.40
2022-08-08T15:01:37.457Z,45.25
2022-08-08T15:04:11.397Z,45.25
2022-08-08T15:06:42.330Z,45.22
2022-08-08T15:09:11.349Z,45.04
2022-08-08T15:11:46.426Z,45.15
2022-08-08T15:14:26.348Z,46.32
2022-08-08T15:16:57.007Z,46.81
2022-08-08T15:19:28.107Z,47.01
2022-08-08T15:21:57.846Z,47.01
2022-08-08T15:24:31.298Z,47.23
2022-08-08T15:27:11.999Z,47.69
2022-08-08T15:29:49.006Z,48.82
2022-08-08T15:32:20.596Z,49.30
2022-08-08T15:34:50.990Z,50.11
2022-08-08T15:37:19.832Z,50.99
2022-08-08T15:39:48.297Z,50.79
2022-08-08T15:42:32.155Z,51.09
2022-08-08T15:45:02.422Z,51.66
2022-08-08T15:47:32.188Z,51.69
2022-08-08T15:50:01.785Z,51.86
2022-08-08T15:52:30.860Z,52.44
2022-08-08T15:54:59.878Z,53.37
2022-08-08T15:57:35.206Z,53.77
2022-08-08T16:00:27.440Z,54.54
2022-08-08T16:02:53.514Z,55.28
2022-08-08T16:05:24.191Z,54.54
2022-08-08T16:07:54.302Z,54.53
2022-08-08T16:13:05.866Z,54.59
2022-08-08T16:13:32.164Z,55.76
2022-08-08T16:16:09.418Z,56.00
2022-08-08T16:18:56.252Z,55.98
2022-08-08T16:21:29.052Z,57.35
2022-08-08T16:24:00.587Z,58.10
2022-08-08T16:26:34.834Z,58.15
2022-08-08T16:29:10.441Z,58.81
2022-08-08T16:31:48.939Z,60.00
2022-08-08T16:34:21.251Z,60.47
2022-08-08T16:36:50.776Z,61.13
2022-08-08T16:39:59.697Z,61.49
2022-08-08T16:42:18.159Z,61.46
2022-08-08T16:44:54.244Z,61.67
2022-08-08T16:47:40.345Z,62.24
2022-08-08T16:50:15.335Z,62.69
2022-08-08T16:55:03.840Z,63.52
2022-08-08T16:55:54.376Z,64.88
2022-08-08T16:58:26.977Z,64.65
2022-08-08T17:01:00.438Z,64.73
2022-08-08T17:03:57.868Z,65.04
2022-08-08T17:06:37.274Z,65.73
2022-08-08T17:09:06.290Z,66.51
2022-08-08T17:11:39.355Z,66.34
2022-08-08T17:14:19.476Z,66.44
2022-08-08T17:16:57.755Z,66.61
2022-08-08T17:19:28.846Z,66.76
2022-08-08T17:22:01.292Z,67.23
2022-08-08T17:24:32.242Z,67.61
2022-08-08T17:27:02.694Z,67.98
2022-08-08T17:29:36.575Z,67.96
2022-08-08T17:32:12.122Z,68.36
2022-08-08T17:35:27.752Z,68.74
2022-08-08T17:37:29.150Z,69.12
2022-08-08T17:40:11.351Z,69.05
2022-08-08T17:42:46.853Z,69.10
2022-08-08T17:45:22.421Z,69.43
2022-08-08T17:47:54.607Z,69.77
2022-08-08T17:50:24.869Z,70.34
2022-08-08T17:52:54.019Z,70.19
2022-08-08T17:56:06.836Z,70.77
2022-08-08T17:58:15.666Z,70.72
2022-08-08T18:00:47.487Z,70.81
2022-08-08T18:03:24.955Z,70.67
2022-08-08T18:05:53.247Z,70.84
2022-08-08T18:08:38.386Z,71.05
2022-08-08T18:11:16.500Z,71.05
2022-08-08T18:13:47.409Z,71.11
2022-08-08T18:16:20.371Z,71.49
2022-08-08T18:18:56.267Z,71.74
2022-08-08T18:22:00.465Z,71.89
2022-08-08T18:24:21.515Z,72.53
2022-08-08T18:26:54.845Z,72.89
2022-08-08T18:29:32.973Z,73.24
2022-08-08T18:32:08.159Z,73.49
2022-08-08T18:34:37.724Z,73.67
2022-08-08T18:37:08.392Z,73.63
2022-08-08T18:39:42.112Z,73.89
2022-08-08T18:42:15.888Z,74.46
2022-08-08T18:44:56.039Z,74.83
2022-08-08T18:47:28.131Z,75.16
2022-08-08T18:50:02.553Z,75.41
2022-08-08T18:52:34.733Z,75.66
2022-08-08T18:55:10.933Z,75.76
2022-08-08T18:57:43.468Z,76.15
2022-08-08T19:00:20.789Z,76.18
2022-08-08T19:02:55.632Z,76.69
2022-08-08T19:05:30.206Z,77.11
2022-08-08T19:08:07.763Z,77.61
2022-08-08T19:10:36.072Z,78.19
2022-08-08T19:13:05.317Z,78.31
2022-08-08T19:15:49.406Z,78.60
2022-08-08T19:18:33.212Z,78.94
2022-08-08T19:21:22.940Z,79.66
2022-08-08T19:23:57.369Z,80.05
2022-08-08T19:26:30.201Z,80.41
2022-08-08T19:29:00.527Z,80.71
2022-08-08T19:31:31.698Z,80.99
2022-08-08T19:34:36.787Z,81.39
2022-08-08T19:36:58.484Z,81.69
2022-08-08T19:39:34.849Z,81.96
2022-08-08T19:42:06.812Z,82.07
2022-08-08T19:44:45.346Z,82.47
2022-08-08T19:47:15.598Z,82.85
2022-08-08T19:49:59.403Z,83.21
2022-08-08T19:52:35.058Z,83.30
2022-08-08T19:55:11.259Z,83.48
2022-08-08T19:57:42.478Z,83.79
2022-08-08T20:00:30.145Z,83.99
2022-08-08T20:03:14.864Z,84.40
2022-08-08T20:06:15.953Z,84.74
2022-08-08T20:08:47.633Z,84.84
2022-08-08T20:11:16.998Z,84.69
2022-08-08T20:14:11.865Z,85.00
2022-08-08T20:16:38.939Z,85.43
2022-08-08T20:19:09.742Z,85.65
2022-08-08T20:21:39.073Z,85.87
2022-08-08T20:24:08.830Z,85.63
2022-08-08T20:26:41.674Z,85.78
2022-08-08T20:29:11.206Z,86.16
2022-08-08T20:32:02.616Z,86.54
2022-08-08T20:34:31.952Z,86.37
2022-08-08T20:37:03.271Z,86.05
2022-08-08T20:39:39.388Z,86.19
2022-08-08T20:42:28.141Z,86.39
2022-08-08T20:44:58.896Z,86.61
2022-08-08T20:47:36.025Z,86.38
2022-08-08T20:50:05.799Z,86.74
2022-08-08T20:52:34.226Z,86.84
2022-08-08T20:55:16.315Z,86.98
2022-08-08T20:57:52.861Z,87.10
2022-08-08T21:00:23.514Z,87.62
2022-08-08T21:02:52.856Z,87.47
2022-08-08T21:05:21.638Z,87.50
2022-08-08T21:08:36.055Z,87.39
2022-08-08T21:10:41.265Z,87.22
2022-08-08T21:13:10.292Z,87.74
2022-08-08T21:16:04.100Z,88.02
2022-08-08T21:18:27.890Z,87.47
2022-08-08T21:20:56.405Z,87.64
2022-08-08T21:23:58.969Z,87.50
2022-08-08T21:26:13.153Z,87.60
2022-08-08T21:28:55.837Z,87.57
2022-08-08T21:31:58.337Z,87.58
2022-08-08T21:34:18.795Z,88.21
2022-08-08T21:36:53.616Z,88.06
2022-08-08T21:39:24.132Z,88.25
2022-08-08T21:42:10.156Z,88.15
2022-08-08T21:44:59.123Z,88.43
2022-08-08T21:48:05.363Z,88.44
2022-08-08T21:50:16.069Z,88.54
2022-08-08T21:54:22.664Z,88.64
2022-08-08T21:56:26.539Z,88.83
2022-08-08T21:58:22.034Z,88.68
2022-08-08T22:01:04.004Z,89.04
2022-08-08T22:03:32.901Z,88.98
2022-08-08T22:06:02.879Z,89.08
2022-08-08T22:08:37.348Z,88.92
2022-08-08T22:11:48.168Z,89.11
2022-08-08T22:13:58.759Z,89.37
2022-08-08T22:16:28.596Z,89.54
2022-08-08T22:18:56.982Z,89.65
2022-08-08T22:21:25.298Z,89.29
2022-08-08T22:24:03.290Z,89.65
2022-08-08T22:26:32.347Z,89.51
2022-08-08T22:29:13.485Z,89.33
2022-08-08T22:31:58.158Z,89.30
2022-08-08T22:34:39.159Z,89.47
2022-08-08T22:37:27.729Z,89.65
2022-08-08T22:40:00.840Z,90.03
2022-08-08T22:42:32.000Z,90.21
2022-08-08T22:45:12.406Z,90.31
2022-08-08T22:47:46.762Z,90.24
2022-08-08T22:50:25.508Z,90.47
2022-08-08T22:54:30.623Z,90.35
2022-08-08T22:55:58.415Z,90.69
2022-08-08T22:58:34.405Z,90.81
2022-08-08T23:02:01.248Z,90.72
2022-08-08T23:03:56.461Z,90.97
2022-08-08T23:06:25.655Z,90.81
2022-08-08T23:08:58.547Z,90.92
2022-08-08T23:12:28.174Z,90.96
2022-08-08T23:14:21.063Z,91.13
2022-08-08T23:16:59.121Z,91.24
2022-08-08T23:19:31.122Z,91.30
2022-08-08T23:22:04.542Z,91.42
2022-08-08T23:24:43.190Z,91.48
2022-08-08T23:27:46.040Z,91.42
2022-08-08T23:30:09.278Z,91.54
2022-08-08T23:32:44.009Z,91.51
2022-08-08T23:35:17.334Z,91.55
2022-08-08T23:38:01.406Z,91.72
2022-08-08T23:40:32.002Z,91.97
2022-08-08T23:43:02.654Z,91.85
2022-08-08T23:49:01.956Z,92.44
2022-08-08T23:49:05.623Z,92.49
2022-08-08T23:51:12.784Z,92.64
2022-08-08T23:54:39.123Z,93.20
2022-08-08T23:56:49.643Z,93.23
2022-08-08T23:59:19.844Z,93.48
